Thursday, March 22, 2018, 9:57 AM EDT
Back to Local

KAGC, Pittsburgh Allegheny Cty.

Location: West Mifflin, PA, United States Lat: 40.35
Local Time: 9:57 AM EDT (13:57 GMT) Lon: -79.917
Time Zone: US/Eastern Elev: 1253 ft

Show me the last for .
Show Decoded

2018-03-22 08:53 METAR KAGC 221253Z 31008KT 10SM CLR M04/M06 A3009 RMK AO2 SLP209 T10391056 =
2018-03-22 07:53 METAR KAGC 221153Z 32006KT 10SM CLR M05/M06 A3007 RMK AO2 SLP205 70035 T10501061
                 11039 21056 53018 =
2018-03-22 06:53 METAR KAGC 221053Z 31006KT 10SM CLR M06/M06 A3005 RMK AO2 SLP196 T10561061 =
2018-03-22 05:53 METAR KAGC 220953Z 32005KT 10SM CLR M05/M06 A3003 RMK AO2 SLP190 T10501061 =
2018-03-22 04:53 METAR KAGC 220853Z 31006KT 10SM CLR M05/M06 A3002 RMK AO2 SLP185 T10501061 53008
2018-03-22 03:53 METAR KAGC 220753Z 32008G15KT 10SM CLR M04/M06 A3001 RMK AO2 SLP181 T10441061 =
2018-03-22 02:53 METAR KAGC 220653Z 32008KT 10SM CLR M04/M07 A3000 RMK AO2 SLP180 T10391067 =
2018-03-22 01:53 METAR KAGC 220553Z 31008KT 10SM CLR M04/M08 A2999 RMK AO2 SLP175 T10391078 11011
                 21039 51016 =
2018-03-22 00:53 METAR KAGC 220453Z 32009KT 10SM CLR M03/M07 A2998 RMK AO2 SLP171 T10331072
                 400001033 =
2018-03-21 23:53 METAR KAGC 220353Z 32009KT 10SM CLR M03/M07 A2996 RMK AO2 SLP165 T10281067 =
2018-03-21 22:53 METAR KAGC 220253Z 33010KT 290V350 10SM CLR M02/M06 A2994 RMK AO2 SLP158
                 T10221056 51026 =
2018-03-21 21:53 METAR KAGC 220153Z 33008KT 10SM CLR M02/M05 A2992 RMK AO2 SLP152 T10171050 =
2018-03-21 20:53 METAR KAGC 220053Z 33011G20KT 10SM FEW065 OVC085 M01/M04 A2989 RMK AO2 SLP141
                 T10111044 =
2018-03-21 19:53 METAR KAGC 212353Z 31010G17KT 10SM SCT055 OVC070 M02/M03 A2986 RMK AO2 SNE04
                 SLP132 P0000 60027 T10171028 10000 21017 51025 =
2018-03-21 19:32 METAR KAGC 212332Z 32009G17KT 10SM OVC037 M02/M03 A2985 RMK AO2 SNE04 P0000
                 T10171028 =
2018-03-21 19:20 METAR KAGC 212320Z 32011G17KT 8SM OVC027 M01/M03 A2986 RMK AO2 SNE04 P0000
                 T10111028 =
2018-03-21 18:58 METAR KAGC 212258Z 33011KT 3SM -SN BR FEW013 OVC031 M01/M03 A2985 RMK AO2 P0000
                 T10111028 =
2018-03-21 18:53 METAR KAGC 212253Z 33008G20KT 1 3/4SM -SN BR SCT013 OVC031 M01/M03 A2985 RMK AO2
                 SLP126 P0002 T10111028 =
2018-03-21 18:36 METAR KAGC 212236Z 34008KT 1 3/4SM -SN BR BKN013 OVC023 M01/M03 A2984 RMK AO2
                 P0001 T10111028 =
2018-03-21 18:30 METAR KAGC 212230Z 33008KT 2 1/2SM -SN BR BKN015 OVC025 M01/M02 A2984 RMK AO2
                 P0001 T10111022 =
2018-03-21 17:57 METAR KAGC 212157Z 35006G15KT 1 1/2SM R28/6000VP6000FT -SN BR BKN028 OVC035
                 M01/M03 A2982 RMK AO2 P0000 T10111033 =
2018-03-21 17:53 METAR KAGC 212153Z 35009G15KT 2SM -SN BR BKN030 OVC037 M01/M03 A2982 RMK AO2
                 SLP116 P0004 T10111028 =
2018-03-21 17:40 METAR KAGC 212140Z 34008KT 7SM -SN BKN034 OVC044 M01/M03 A2981 RMK AO2 P0003
                 T10111028 =
2018-03-21 17:28 METAR KAGC 212128Z 35007KT 3SM -SN BR BKN026 OVC036 M01/M03 A2981 RMK AO2 P0003
                 T10111033 =
2018-03-21 17:21 METAR KAGC 212121Z 34009G18KT 2 1/2SM -SN BR BKN022 BKN028 OVC034 M01/M03 A2980
                 RMK AO2 P0002 T10111033 =
2018-03-21 17:07 METAR KAGC 212107Z 35010G20KT 1 1/2SM -SN BR BKN023 OVC029 M01/M03 A2980 RMK AO2
                 P0001 T10111033 =
2018-03-21 16:53 METAR KAGC 212053Z 36011G19KT 2 1/2SM -SN BR FEW014 OVC025 M01/M03 A2979 RMK AO2
                 SLP105 P0008 60021 T10061028 53020 =
2018-03-21 16:45 METAR KAGC 212045Z 36010G25KT 2SM -SN BR FEW016 OVC024 M01/M03 A2978 RMK AO2
                 P0007 T10111033 =
2018-03-21 16:26 METAR KAGC 212026Z 35013G25KT 1 1/4SM R28/6000VP6000FT -SN BR SCT010 BKN015
                 OVC022 M01/M02 A2977 RMK AO2 P0005 T10061022 =
2018-03-21 16:11 METAR KAGC 212011Z 35015G21KT 1SM R28/4000VP6000FT -SN BR BKN009 BKN015 OVC020
                 M01/M02 A2977 RMK AO2 P0003 T10061017 =
2018-03-21 16:02 METAR KAGC 212002Z 35009G19KT 3/4SM R28/3500V5500FT -SN BR BKN011 OVC017 M01/M02
                 A2976 RMK AO2 P0002 T10061017 =
2018-03-21 15:53 METAR KAGC 211953Z 35010G18KT 3/4SM R28/3000V5000FT -SN BR BKN009 BKN012 OVC017
                 M01/M02 A2976 RMK AO2 SLP094 P0007 T10061017 =
2018-03-21 15:47 METAR KAGC 211947Z 35012G18KT 3/4SM R28/4000V5000FT -SN BR SCT009 BKN012 OVC017
                 M01/M02 A2975 RMK AO2 P0006 =
2018-03-21 15:36 METAR KAGC 211936Z 36011G19KT 1 1/4SM R28/4000VP6000FT -SN BR BKN009 OVC016
                 00/M02 A2975 RMK AO2 P0005 T00001017 =
2018-03-21 15:29 METAR KAGC 211929Z 35010G20KT 1SM R28/3500VP6000FT -SN BR SCT007 BKN010 OVC014
                 00/M01 A2975 RMK AO2 P0004 T00001011 =
2018-03-21 15:20 METAR KAGC 211920Z 34011G18KT 3/4SM R28/3000V4500FT -SN BR BKN006 OVC014 M01/M02
                 A2974 RMK AO2 P0002 T10061017 =
2018-03-21 15:01 METAR KAGC 211901Z 35008G17KT 1/2SM R28/2200V3500FT SN FZFG SCT006 OVC011
                 M01/M02 A2974 RMK AO2 P0001 T10061017 =
2018-03-21 14:53 METAR KAGC 211853Z 36009G18KT 3/4SM R28/2200V3500FT -SN BR OVC011 M01/M02 A2974
                 RMK AO2 SLP087 P0006 T10061017 =
2018-03-21 14:37 METAR KAGC 211837Z 35010G20KT 1/2SM R28/2200V2800FT SN FZFG SCT007 OVC013
                 M01/M02 A2973 RMK AO2 P0004 T10111022 =
2018-03-21 13:53 METAR KAGC 211753Z 36014G20KT 3/4SM R28/2800V4500FT -SN BR BKN007 OVC014 00/M01
                 A2973 RMK AO2 SLP084 P0004 60008 T00001011 10000 21028 51012 =
2018-03-21 13:41 METAR KAGC 211741Z 36010G19KT 1/2SM R28/2800V5000FT SN FZFG BKN007 OVC014
                 M01/M02 A2973 RMK AO2 P0003 T10061017 =
2018-03-21 13:34 METAR KAGC 211734Z 36012G21KT 1/2SM R28/2800V3500FT -SN FZFG SCT007 OVC012
                 M01/M02 A2972 RMK AO2 P0003 T10061022 =
2018-03-21 13:23 METAR KAGC 211723Z 35009KT 1/2SM R28/2600V4000FT SN FZFG BKN007 OVC012 M01/M02
                 A2972 RMK AO2 P0002 T10061017 =
2018-03-21 13:14 METAR KAGC 211714Z 36010G18KT 1/2SM R28/2400V3500FT SN FZFG SCT007 OVC012
                 M01/M02 A2972 RMK AO2 P0001 T10111022 =
2018-03-21 12:53 METAR KAGC 211653Z 36010G16KT 1/2SM R28/2200V4000FT SN FZFG BKN007 OVC014
                 M01/M02 A2972 RMK AO2 SLP082 P0003 T10111022 =
2018-03-21 12:30 METAR KAGC 211630Z 01010KT 1/2SM R28/2600V4000FT -SN FZFG SCT007 OVC013 M01/M02
                 A2971 RMK AO2 P0001 T10111022 =
2018-03-21 12:18 METAR KAGC 211618Z 35010G16KT 1/2SM R28/2600V4000FT -SN FZFG FEW005 OVC009
                 M02/M02 A2971 RMK AO2 P0001 T10171022 =
2018-03-21 11:53 METAR KAGC 211553Z 36009KT 1/4SM R28/1800V3000FT SN FZFG VV006 M02/M02 A2971 RMK
                 AO2 SLP077 P0001 T10171022 =
2018-03-21 11:23 METAR KAGC 211523Z 36006KT 1/4SM R28/2200V3500FT SN FZFG VV008 M02/M02 A2970 RMK
                 AO2 P0000 T10171022 =
2018-03-21 10:53 METAR KAGC 211453Z 01008KT 3/4SM R28/3000VP6000FT -SN BR SCT007 OVC012 M02/M03
                 A2969 RMK AO2 SLP071 P0000 60000 T10171028 51009 =
2018-03-21 10:50 METAR KAGC 211450Z 35008KT 1/2SM R28/3000V4000FT -SN FZFG SCT007 OVC010 M02/M02
                 A2969 RMK AO2 P0000 =
2018-03-21 10:24 METAR KAGC 211424Z 36005KT 1/2SM R28/2600V3500FT SN FZFG VV008 M02/M03 A2968 RMK
                 AO2 P0000 T10221028 =
2018-03-21 10:07 METAR KAGC 211407Z 01005KT 1/4SM R28/2400V3500FT SN FZFG FEW005 OVC009 M02/M03
                 A2968 RMK AO2 P0000 T10221028 =

Support USWX by starting your Amazon purchase here.